地図

経路データ

SID SEASON NUMBER BASIN SUBBASIN NAME ISO_TIME NATURE LAT LON WMO_WIND WMO_PRES WMO_AGENCY TRACK_TYPE DIST2LAND LANDFALL IFLAG USA_AGENCY USA_ATCF_ID USA_LAT USA_LON USA_RECORD USA_STATUS USA_WIND USA_PRES USA_SSHS USA_R34_NE USA_R34_SE USA_R34_SW USA_R34_NW USA_R50_NE USA_R50_SE USA_R50_SW USA_R50_NW USA_R64_NE USA_R64_SE USA_R64_SW USA_R64_NW USA_POCI USA_ROCI USA_RMW USA_EYE TOKYO_LAT TOKYO_LON TOKYO_GRADE TOKYO_WIND TOKYO_PRES TOKYO_R50_DIR TOKYO_R50_LONG TOKYO_R50_SHORT TOKYO_R30_DIR TOKYO_R30_LONG TOKYO_R30_SHORT TOKYO_LAND CMA_LAT CMA_LON CMA_CAT CMA_WIND CMA_PRES HKO_LAT HKO_LON HKO_CAT HKO_WIND HKO_PRES NEWDELHI_LAT NEWDELHI_LON NEWDELHI_GRADE NEWDELHI_WIND NEWDELHI_PRES NEWDELHI_CI NEWDELHI_DP NEWDELHI_POCI REUNION_LAT REUNION_LON REUNION_TYPE REUNION_WIND REUNION_PRES REUNION_TNUM REUNION_CI REUNION_RMW REUNION_R34_NE REUNION_R34_SE REUNION_R34_SW REUNION_R34_NW REUNION_R50_NE REUNION_R50_SE REUNION_R50_SW REUNION_R50_NW REUNION_R64_NE REUNION_R64_SE REUNION_R64_SW REUNION_R64_NW BOM_LAT BOM_LON BOM_TYPE BOM_WIND BOM_PRES BOM_TNUM BOM_CI BOM_RMW BOM_R34_NE BOM_R34_SE BOM_R34_SW BOM_R34_NW BOM_R50_NE BOM_R50_SE BOM_R50_SW BOM_R50_NW BOM_R64_NE BOM_R64_SE BOM_R64_SW BOM_R64_NW BOM_ROCI BOM_POCI BOM_EYE BOM_POS_METHOD BOM_PRES_METHOD NADI_LAT NADI_LON NADI_CAT NADI_WIND NADI_PRES WELLINGTON_LAT WELLINGTON_LON WELLINGTON_WIND WELLINGTON_PRES DS824_LAT DS824_LON DS824_STAGE DS824_WIND DS824_PRES TD9636_LAT TD9636_LON TD9636_STAGE TD9636_WIND TD9636_PRES TD9635_LAT TD9635_LON TD9635_WIND TD9635_PRES TD9635_ROCI NEUMANN_LAT NEUMANN_LON NEUMANN_CLASS NEUMANN_WIND NEUMANN_PRES MLC_LAT MLC_LON MLC_CLASS MLC_WIND MLC_PRES USA_GUST BOM_GUST BOM_GUST_PER REUNION_GUST REUNION_GUST_PER USA_SEAHGT USA_SEARAD_NE USA_SEARAD_SE USA_SEARAD_SW USA_SEARAD_NW STORM_SPEED STORM_DIR
1950221N19124 1950 51 WP MM IDA 1950-08-09 00:00:00 TS 19.4000 123.500 main 168 168 __O___________ -1 19.4000 123.500 1 29 998 7 19
1950221N19124 1950 51 WP MM IDA 1950-08-09 03:00:00 TS 19.7102 123.617 main 199 199 __P___________ -1 19.7102 123.617 1 33 997 6 18
1950221N19124 1950 51 WP MM IDA 1950-08-09 06:00:00 TS 20.0000 123.700 main 231 231 __O___________ -1 20.0000 123.700 2 38 996 6 14
1950221N19124 1950 51 WP MM IDA 1950-08-09 09:00:00 TS 20.2570 123.760 main 264 264 __P___________ -1 20.2570 123.760 2 38 996 6 30
1950221N19124 1950 51 WP MM IDA 1950-08-09 12:00:00 TS 20.5000 124.000 main 294 294 __O___________ -1 20.5000 124.000 2 38 996 10 56
1950221N19124 1950 51 WP MM IDA 1950-08-09 15:00:00 TS 20.7877 124.602 main 360 360 __P___________ -1 20.7877 124.602 2 38 996 14 69
1950221N19124 1950 51 WP MM IDA 1950-08-09 18:00:00 TS 21.0000 125.400 main 435 435 __O___________ -1 21.0000 125.400 2 38 996 15 81
1950221N19124 1950 51 WP MM IDA 1950-08-09 21:00:00 TS 21.0295 126.163 main 501 501 __P___________ -1 21.0295 126.163 2 38 995 15 90
1950221N19124 1950 51 WP MM IDA 1950-08-10 00:00:00 TS 21.0000 127.000 main 571 571 __O___________ -1 21.0000 127.000 2 38 994 17 90
1950221N19124 1950 51 WP MM IDA 1950-08-10 03:00:00 TS 21.0357 127.987 main 663 663 __P___________ -1 21.0357 127.987 2 38 994 18 87
1950221N19124 1950 51 WP MM IDA 1950-08-10 06:00:00 TS 21.1000 128.900 main 753 753 __O___________ -1 21.1000 128.900 2 38 994 14 85
1950221N19124 1950 51 WP MM IDA 1950-08-10 09:00:00 TS 21.1691 129.510 main 815 815 __P___________ -1 21.1691 129.510 2 38 994 30 75
1950221N19124 1950 51 WP MM IDA 1950-08-10 12:00:00 TS 21.9000 132.000 main 1024 998 O_O______OOO__ jtwc_wp WP071950 22.5000 134.000 50 0 21.3000 130.000 2 38 994 22.5000 134.000 TC 50 22.5000 134.000 2 50 22.5000 134.000 50 997 60 36 71
1950221N19124 1950 51 WP MM IDA 1950-08-10 15:00:00 TS 22.3065 133.153 main 1002 987 P_P______PPP__ WP071950 22.7153 134.450 50 0 21.5124 130.558 2 38 994 22.7153 134.450 TC 50 22.6682 134.454 2 50 22.7153 134.450 50 996 60 19 68
1950221N19124 1950 51 WP MM IDA 1950-08-10 18:00:00 TS 22.6135 133.951 main 993 982 O_O______OPO__ jtwc_wp WP071950 22.9000 134.900 50 0 21.8000 131.100 2 38 994 22.9000 134.900 TC 50 22.8386 134.907 2 50 22.9000 134.900 50 996 60 14 68
1950221N19124 1950 51 WP MM IDA 1950-08-10 21:00:00 TS 22.8493 134.600 main 993 981 P_P______PPP__ WP071950 23.0424 135.350 50 0 22.1046 131.593 2 38 994 23.0424 135.350 TC 50 23.0147 135.356 2 50 23.0424 135.350 50 996 90 11 66
1950221N19124 1950 51 WP MM IDA 1950-08-11 00:00:00 TS 23.0600 135.060 main 983 977 O_O______OOO__ jtwc_wp WP071950 23.2000 135.800 50 0 22.5000 132.100 2 38 994 23.2000 135.800 TC 50 23.2000 135.800 2 50 23.2000 135.800 50 996 120 10 60
1950221N19124 1950 51 WP MM IDA 1950-08-11 03:00:00 TS 23.3502 135.536 main 971 971 P_P______PPP__ WP071950 23.4499 136.257 50 0 23.0048 132.670 2 38 994 23.4499 136.257 TC 50 23.3965 136.236 2 50 23.4499 136.257 50 996 120 11 56
1950221N19124 1950 51 WP MM IDA 1950-08-11 06:00:00 TS 23.6599 136.013 main 968 965 O_O______OPO__ jtwc_wp WP071950 23.7000 136.700 50 0 23.6000 133.300 2 38 995 23.7000 136.700 TC 50 23.5995 136.665 2 50 23.7000 136.700 50 996 120 10 56
1950221N19124 1950 51 WP MM IDA 1950-08-11 09:00:00 TS 23.9338 136.469 main 975 966 P_P______PPP__ WP071950 23.8648 137.108 50 0 24.2715 133.933 2 38 995 23.8648 137.108 TC 50 23.8028 137.086 2 50 23.8648 137.108 50 996 120 10 58
1950221N19124 1950 51 WP MM IDA 1950-08-11 12:00:00 TS 24.1800 136.940 main 968 968 O_O______OOO__ jtwc_wp WP071950 24.0000 137.500 50 0 24.9000 134.700 2 38 995 24.0000 137.500 TC 50 24.0000 137.500 2 50 24.0000 137.500 50 997 120 10 62
1950221N19124 1950 51 WP MM IDA 1950-08-11 15:00:00 TS 24.4045 137.458 main 984 981 P_P______PPP__ WP071950 24.1424 137.900 47 0 25.3979 135.704 2 38 995 24.1424 137.900 TC 47 24.1976 137.887 2 50 24.1424 137.900 47 996 120 10 67
1950221N19124 1950 51 WP MM IDA 1950-08-11 18:00:00 TS 24.5973 137.994 main 997 994 O_O______OPO__ jtwc_wp WP071950 24.3000 138.300 45 0 25.7000 136.800 2 38 995 24.3000 138.300 TC 45 24.3863 138.270 2 50 24.3000 138.300 45 995 120 10 69
1950221N19124 1950 51 WP MM IDA 1950-08-11 21:00:00 TS 24.7706 138.511 main 994 992 P_P______PPP__ WP071950 24.5073 138.685 47 0 25.7746 137.831 2 38 995 24.5073 138.685 TC 47 24.5569 138.668 2 50 24.5073 138.685 47 994 90 10 72
1950221N19124 1950 51 WP MM IDA 1950-08-12 00:00:00 TS 24.9000 139.040 main 998 996 O_O______OOO__ jtwc_wp WP071950 24.7000 139.100 50 0 25.7000 138.800 2 38 995 24.7000 139.100 TC 50 24.7000 139.100 2 50 24.7000 139.100 50 993 60 10 78
1950221N19124 1950 51 WP MM IDA 1950-08-12 03:00:00 TS 24.9794 139.603 main 1007 1007 P_P______PPP__ WP071950 24.8224 139.578 50 0 25.6218 139.688 2 38 995 24.8224 139.578 TC 50 24.8079 139.594 2 52 24.8224 139.578 50 992 60 10 84
1950221N19124 1950 51 WP MM IDA 1950-08-12 06:00:00 TS 25.0175 140.184 main 1029 1029 O_O______OPO__ jtwc_wp WP071950 24.9000 140.100 50 0 25.5000 140.500 2 38 995 24.9000 140.100 TC 50 24.8876 140.121 2 55 24.9000 140.100 50 991 60 11 87
1950221N19124 1950 51 WP MM IDA 1950-08-12 09:00:00 TS 25.0280 140.774 main 1055 1055 P_P______PPP__ WP071950 24.9499 140.643 55 0 25.3421 141.280 2 38 995 24.9499 140.643 TC 55 24.9485 140.662 2 57 24.9499 140.643 55 990 90 11 89
1950221N19124 1950 51 WP MM IDA 1950-08-12 12:00:00 TS 25.0400 141.360 main 1082 1078 O_O______OOO__ jtwc_wp WP071950 25.0000 141.200 60 0 25.2000 142.000 2 38 995 25.0000 141.200 TC 60 25.0000 141.200 2 60 25.0000 141.200 60 989 120 11 85
1950221N19124 1950 51 WP MM IDA 1950-08-12 15:00:00 TS 25.1154 141.929 main 1098 1098 P_P______PPP__ WP071950 25.1075 141.765 60 0 25.1422 142.680 2 43 994 25.1075 141.765 TC 60 25.1126 141.673 2 60 25.1075 141.765 60 988 120 10 82
1950221N19124 1950 51 WP MM IDA 1950-08-12 18:00:00 TS 25.1820 142.469 main 1107 1107 O_O______OPO__ jtwc_wp WP071950 25.2000 142.300 60 0 25.1000 143.300 3 48 994 25.2000 142.300 TC 60 25.2102 142.145 2 60 25.2000 142.300 60 988 120 9 85
1950221N19124 1950 51 WP MM IDA 1950-08-12 21:00:00 TS 25.1927 142.946 main 1120 1120 P_P______PPP__ WP071950 25.2369 142.735 60 0 24.9998 143.880 3 48 994 25.2369 142.735 TC 60 25.2529 142.644 2 60 25.2369 142.735 60 987 150 9 93
1950221N19124 1950 51 WP MM IDA 1950-08-13 00:00:00 TS 25.1400 143.440 main 1144 1144 O_O______OOO__ jtwc_wp WP071950 25.2000 143.200 60 0 24.9000 144.400 3 48 994 25.2000 143.200 TC 60 25.2000 143.200 2 60 25.2000 143.200 60 987 180 10 99
1950221N19124 1950 51 WP MM IDA 1950-08-13 03:00:00 TS 25.0455 144.029 main 1172 1172 P_P______PPP__ WP071950 25.1173 143.804 60 0 24.8347 144.865 3 48 994 25.1173 143.804 TC 60 25.0405 143.869 2 57 25.1173 143.804 60 986 180 12 104
1950221N19124 1950 51 WP MM IDA 1950-08-13 06:00:00 TS 24.8557 144.678 main 1207 1207 O_O______OPO__ jtwc_wp WP071950 24.9000 144.500 60 0 24.8000 145.300 3 48 994 24.9000 144.500 TC 60 24.7783 144.588 2 55 24.9000 144.500 60 986 180 13 112
1950221N19124 1950 51 WP MM IDA 1950-08-13 09:00:00 TS 24.5454 145.369 main 1275 1275 P_P______PPP__ WP071950 24.5026 145.258 55 0 24.7924 145.757 3 48 994 24.5026 145.258 TC 55 24.4267 145.312 2 52 24.5026 145.258 55 985 180 14 119
1950221N19124 1950 51 WP MM IDA 1950-08-13 12:00:00 TS 24.1600 146.040 main 1330 1330 O_O______OOO__ jtwc_wp WP071950 24.0000 146.000 50 0 24.8000 146.200 3 48 994 24.0000 146.000 TC 50 24.0000 146.000 2 50 24.0000 146.000 50 985 180 14 126
1950221N19124 1950 51 WP MM IDA 1950-08-13 15:00:00 TS 23.7353 146.580 main 1407 1407 P_P______PPP__ WP071950 23.4689 146.577 62 0 24.7923 146.608 3 48 993 23.4689 146.577 TC 62 23.4777 146.561 2 62 23.4689 146.577 62 984 180 13 128
1950221N19124 1950 51 WP MM IDA 1950-08-13 18:00:00 TS 23.3600 147.160 main 1464 1464 O_O______OOO__ jtwc_wp WP071950 23.0000 147.200 75 1 24.8000 147.000 3 48 992 23.0000 147.200 TC 75 23.0000 147.200 3 75 23.0000 147.200 75 984 180 15 119
1950221N19124 1950 51 WP MM IDA 1950-08-13 21:00:00 TS 23.0094 148.034 main 1542 1542 P_P______PPP__ WP071950 22.6085 148.116 75 1 24.8423 147.392 3 48 992 22.6085 148.116 TC 75 22.6420 148.103 3 75 22.6085 148.116 75 983 180 16 106
1950221N19124 1950 51 WP MM IDA 1950-08-14 00:00:00 TS 22.9273 148.818 main 1592 1591 O_O______OOO__ jtwc_wp WP071950 22.5000 149.000 75 1 24.9000 147.800 3 48 992 22.5000 149.000 TC 75 22.5000 149.000 4 75 22.5000 149.000 75 983 180 12 82
1950221N19124 1950 51 WP MM IDA 1950-08-14 03:00:00 TS 23.1725 149.354 main 1596 1574 P_P______PPP__ WP071950 22.8444 149.596 75 1 24.9349 148.243 3 48 991 22.8444 149.596 TC 75 22.6735 149.605 4 75 22.8444 149.596 75 980 210 11 52
1950221N19124 1950 51 WP MM IDA 1950-08-14 06:00:00 TS 23.5852 149.736 main 1574 1554 O_O______OPO__ jtwc_wp WP071950 23.4000 150.000 75 1 25.0000 148.700 3 48 990 23.4000 150.000 TC 75 23.1111 150.016 4 75 23.4000 150.000 75 978 240 10 37
1950221N19124 1950 51 WP MM IDA 1950-08-14 09:00:00 TS 24.0021 150.029 main 1554 1529 P_P______PPP__ WP071950 23.8497 150.288 75 1 25.1275 149.172 3 48 990 23.8497 150.288 TC 75 23.6934 150.294 4 75 23.8497 150.288 75 976 270 10 30
1950221N19124 1950 51 WP MM IDA 1950-08-14 12:00:00 TS 24.4333 150.267 main 1535 1511 O_O______OOO__ jtwc_wp WP071950 24.3000 150.500 75 1 25.3000 149.600 3 48 990 24.3000 150.500 TC 75 24.3000 150.500 4 75 24.3000 150.500 75 974 300 10 28
1950221N19124 1950 51 WP MM IDA 1950-08-14 15:00:00 TS 24.8411 150.526 main 1511 1488 P_P______PPP__ WP071950 24.7500 150.772 75 1 25.4848 149.923 3 48 990 24.7500 150.772 TC 75 24.7616 150.738 4 73 24.7500 150.772 75 973 300 9 28
1950221N19124 1950 51 WP MM IDA 1950-08-14 18:00:00 TS 25.2536 150.753 main 1486 1467 O_O______OPO__ jtwc_wp WP071950 25.2000 151.000 75 1 25.7000 150.200 3 48 990 25.2000 151.000 TC 75 25.2218 150.919 4 72 25.2000 151.000 75 973 300 9 24
1950221N19124 1950 51 WP MM IDA 1950-08-14 21:00:00 TS 25.6701 150.928 main 1458 1438 P_P______PPP__ WP071950 25.6574 151.108 72 1 25.9276 150.523 3 48 990 25.6574 151.108 TC 72 25.6712 151.066 4 71 25.6574 151.108 72 973 300 9 21
1950221N19124 1950 51 WP MM IDA 1950-08-15 00:00:00 TS 26.0833 151.100 main 1438 1419 O_O______OOO__ jtwc_wp WP071950 26.1000 151.200 70 1 26.2000 150.800 3 48 990 26.1000 151.200 TC 70 26.1000 151.200 4 70 26.1000 151.200 70 974 300 9 25
1950221N19124 1950 51 WP MM IDA 1950-08-15 03:00:00 TS 26.4884 151.345 main 1419 1409 P_P______PPP__ WP071950 26.5151 151.400 70 1 26.5349 150.988 3 53 989 26.5151 151.400 TC 70 26.4925 151.374 4 70 26.5151 151.400 70 975 330 9 28
1950221N19124 1950 51 WP MM IDA 1950-08-15 06:00:00 TS 26.8775 151.573 main 1409 1392 O_O______OPO__ jtwc_wp WP071950 26.9000 151.600 70 1 26.9000 151.100 3 58 988 26.9000 151.600 TC 70 26.8650 151.538 4 70 26.9000 151.600 70 976 360 8 24
1950221N19124 1950 51 WP MM IDA 1950-08-15 09:00:00 TS 27.2320 151.719 main 1392 1368 P_P______PPP__ WP071950 27.2424 151.715 70 1 27.2425 151.180 3 58 987 27.2424 151.715 TC 70 27.2300 151.683 4 70 27.2424 151.715 70 977 390 8 15
1950221N19124 1950 51 WP MM IDA 1950-08-15 12:00:00 TS 27.6000 151.787 main 1368 1337 O_O______OOO__ jtwc_wp WP071950 27.6000 151.800 70 1 27.6000 151.200 3 58 986 27.6000 151.800 TC 70 27.6000 151.800 4 70 27.6000 151.800 70 978 420 8 8
1950221N19124 1950 51 WP MM IDA 1950-08-15 15:00:00 TS 28.0329 151.840 main 1337 1315 P_P______PPP__ WP071950 28.0500 151.915 67 1 28.0075 151.165 3 58 985 28.0500 151.915 TC 67 27.9846 151.879 4 68 28.0500 151.915 67 979 450 9 4
1950221N19124 1950 51 WP MM IDA 1950-08-15 18:00:00 TS 28.4624 151.853 main 1307 1278 O_O______OPO__ jtwc_wp WP071950 28.5000 152.000 65 1 28.4000 151.100 3 58 985 28.5000 152.000 TC 65 28.3774 151.931 4 67 28.5000 152.000 65 981 480 8 0
1950221N19124 1950 51 WP MM IDA 1950-08-15 21:00:00 TS 28.8093 151.809 main 1278 1257 P_P______PPP__ WP071950 28.8575 152.008 65 1 28.6925 151.057 3 58 983 28.8575 152.008 TC 65 28.7815 151.967 4 66 28.8575 152.008 65 982 420 7 357
1950221N19124 1950 51 WP MM IDA 1950-08-16 00:00:00 TS 29.1600 151.800 main 1250 1230 O_O______OOO__ jtwc_wp WP071950 29.2000 152.000 65 1 29.0000 151.000 3 58 982 29.2000 152.000 TC 65 29.2000 152.000 4 65 29.2000 152.000 65 983 360 8 0
1950221N19124 1950 51 WP MM IDA 1950-08-16 03:00:00 TS 29.5632 151.813 main 1223 1197 P_P______PPP__ WP071950 29.5775 152.042 65 1 29.4275 150.915 3 63 980 29.5775 152.042 TC 65 29.6558 152.022 4 65 29.5775 152.042 65 983 360 8 2
1950221N19124 1950 51 WP MM IDA 1950-08-16 06:00:00 TS 30.0044 151.830 main 1197 1166 O_O______OPO__ jtwc_wp WP071950 30.0000 152.100 65 1 29.9000 150.800 4 68 979 30.0000 152.100 TC 65 30.1222 152.049 4 65 30.0000 152.100 65 984 360 9 1
1950221N19124 1950 51 WP MM IDA 1950-08-16 09:00:00 TS 30.4824 151.819 main 1166 1142 P_P______PPP__ WP071950 30.4999 152.113 65 1 30.3350 150.657 4 68 978 30.4999 152.113 TC 65 30.5776 152.101 4 65 30.4999 152.113 65 984 360 10 0
1950221N19124 1950 51 WP MM IDA 1950-08-16 12:00:00 TS 30.9600 151.860 main 1145 1132 O_O______OOO__ jtwc_wp WP071950 31.0000 152.200 65 1 30.8000 150.500 4 68 977 31.0000 152.200 TC 65 31.0000 152.200 4 65 31.0000 152.200 65 984 360 9 11
1950221N19124 1950 51 WP MM IDA 1950-08-16 15:00:00 TS 31.4025 152.033 main 1132 1128 P_P______PPP__ WP071950 31.4377 152.484 65 1 31.3425 150.343 4 68 976 31.4377 152.484 TC 65 31.3570 152.371 4 65 31.4377 152.484 65 984 360 9 21
1950221N19124 1950 51 WP MM IDA 1950-08-16 18:00:00 TS 31.7960 152.238 main 1128 1123 O_O______OPO__ jtwc_wp WP071950 31.8000 152.800 65 1 31.9000 150.200 4 68 975 31.8000 152.800 TC 65 31.6801 152.590 4 65 31.8000 152.800 65 985 360 8 21
1950221N19124 1950 51 WP MM IDA 1950-08-16 21:00:00 TS 32.1135 152.349 main 1123 1122 P_P______PPP__ WP071950 32.0573 152.951 65 1 32.4075 150.055 4 63 976 32.0573 152.951 TC 65 31.9882 152.840 4 65 32.0573 152.951 65 985 360 7 18
1950221N19124 1950 51 WP MM IDA 1950-08-17 00:00:00 TS 32.4200 152.480 main 1127 1123 O_O______OOO__ jtwc_wp WP071950 32.3000 153.100 65 1 32.9000 150.000 3 58 978 32.3000 153.100 TC 65 32.3000 153.100 4 65 32.3000 153.100 65 985 360 8 25
1950221N19124 1950 51 WP MM IDA 1950-08-17 03:00:00 TS 32.7942 152.719 main 1128 1128 P_P______PPP__ WP071950 32.6352 153.392 62 0 33.4149 150.082 3 58 979 32.6352 153.392 TC 62 32.6507 153.335 4 63 32.6352 153.392 62 984 360 9 30
1950221N19124 1950 51 WP MM IDA 1950-08-17 06:00:00 TS 33.1814 152.996 main 1140 1137 O_O______OPO__ jtwc_wp WP071950 33.0000 153.700 60 0 33.9000 150.300 3 58 980 33.0000 153.700 TC 60 33.0072 153.578 4 62 33.0000 153.700 60 983 360 9 29
1950221N19124 1950 51 WP MM IDA 1950-08-17 09:00:00 TS 33.5509 153.226 main 1146 1146 P_P______PPP__ WP071950 33.3573 153.900 60 0 34.3224 150.598 3 58 981 33.3573 153.900 TC 60 33.3601 153.832 4 61 33.3573 153.900 60 981 330 8 29
1950221N19124 1950 51 WP MM IDA 1950-08-17 12:00:00 TS 33.9000 153.480 main 1164 1161 O_O______OOO__ jtwc_wp WP071950 33.7000 154.100 60 0 34.7000 151.000 3 58 983 33.7000 154.100 TC 60 33.7000 154.100 2 60 33.7000 154.100 60 980 300 8 35
1950221N19124 1950 51 WP MM IDA 1950-08-17 15:00:00 TS 34.2226 153.800 main 1184 1181 P_P______PPP__ WP071950 34.0075 154.385 55 0 35.0724 151.470 3 58 984 34.0075 154.385 TC 55 34.0182 154.374 2 58 34.0075 154.385 55 979 300 8 42
1950221N19124 1950 51 WP MM IDA 1950-08-17 18:00:00 TS 34.5244 154.153 main 1206 1200 O_O______OPO__ jtwc_wp WP071950 34.3000 154.700 50 0 35.4000 152.000 3 58 985 34.3000 154.700 TC 50 34.3220 154.664 2 57 34.3000 154.700 50 979 300 8 44
1950221N19124 1950 51 WP MM IDA 1950-08-17 21:00:00 TS 34.8234 154.498 main 1213 1203 P_P______PPP__ WP071950 34.6074 154.993 52 0 35.6798 152.543 3 53 986 34.6074 154.993 TC 52 34.6149 154.971 2 56 34.6074 154.993 52 978 270 8 45
1950221N19124 1950 51 WP MM IDA 1950-08-18 00:00:00 TS 35.1000 154.860 main 1209 1200 O_O______OOO__ jtwc_wp WP071950 34.9000 155.300 55 0 35.9000 153.100 3 48 988 34.9000 155.300 TC 55 34.9000 155.300 2 55 34.9000 155.300 55 978 240 8 50
1950221N19124 1950 51 WP MM IDA 1950-08-18 03:00:00 TS 35.3401 155.241 main 1209 1204 P_P______PPP__ WP071950 35.1499 155.635 60 0 36.0645 153.636 3 48 988 35.1499 155.635 TC 60 35.1864 155.662 2 57 35.1499 155.635 60 978 240 8 54
1950221N19124 1950 51 WP MM IDA 1950-08-18 06:00:00 TS 35.5730 155.649 main 1208 1207 O_O______OPO__ jtwc_wp WP071950 35.4000 156.000 65 1 36.2000 154.200 3 48 989 35.4000 156.000 TC 65 35.4652 156.043 2 60 35.4000 156.000 65 978 240 9 54
1950221N19124 1950 51 WP MM IDA 1950-08-18 09:00:00 TS 35.8418 156.095 main 1214 1199 P_P______PPP__ WP071950 35.7001 156.407 65 1 36.3722 154.827 3 48 989 35.7001 156.407 TC 65 35.7364 156.427 2 62 35.7001 156.407 65 978 270 9 54
1950221N19124 1950 51 WP MM IDA 1950-08-18 12:00:00 TS 36.1000 156.540 main 1199 1192 O_O______OOO__ jtwc_wp WP071950 36.0000 156.800 65 1 36.5000 155.500 3 48 990 36.0000 156.800 TC 65 36.0000 156.800 3 65 36.0000 156.800 65 979 300 8 55
1950221N19124 1950 51 WP MM IDA 1950-08-18 15:00:00 TS 36.3102 156.936 main 1196 1189 P_P______PPP__ WP071950 36.2572 157.108 65 1 36.5225 156.208 3 48 990 36.2572 157.108 TC 65 36.2566 157.149 3 63 36.2572 157.108 65 980 330 7 57
1950221N19124 1950 51 WP MM IDA 1950-08-18 18:00:00 TS 36.5012 157.307 main 1193 1188 O_O______OPO__ jtwc_wp WP071950 36.5000 157.400 65 1 36.5000 156.900 3 48 990 36.5000 157.400 TC 65 36.5077 157.476 3 62 36.5000 157.400 65 981 360 7 57
1950221N19124 1950 51 WP MM IDA 1950-08-18 21:00:00 TS 36.6964 157.684 main 1192 1188 P_P______PPP__ WP071950 36.7497 157.720 62 0 36.5071 157.522 3 48 990 36.7497 157.720 TC 62 36.7550 157.791 3 61 36.7497 157.720 62 982 390 7 60
1950221N19124 1950 51 WP MM IDA 1950-08-19 00:00:00 TS 36.8750 158.100 main 1192 1192 O_O______OOO__ jtwc_wp WP071950 37.0000 158.100 60 0 36.5000 158.100 3 48 990 37.0000 158.100 TC 60 37.0000 158.100 2 60 37.0000 158.100 60 984 420 8 63
1950221N19124 1950 51 WP MM IDA 1950-08-19 03:00:00 TS 37.0706 158.590 main 1199 1199 P_P______P_P__ WP071950 37.3324 158.568 55 0 36.4569 158.643 3 48 990 37.3324 158.568 TC 55 2 37.2506 158.572 55 986 390 9 71
1950221N19124 1950 51 WP MM IDA 1950-08-19 06:00:00 TS 37.1615 159.131 main 1216 1216 O_O______O_O__ jtwc_wp WP071950 37.5000 159.100 50 0 36.4000 159.200 3 48 990 37.5000 159.100 TC 50 2 37.5000 159.100 50 988 360 9 97
1950221N19124 1950 51 WP MM IDA 1950-08-19 09:00:00 TS 36.9644 159.748 main 1266 1266 P_P______P____ WP071950 37.2680 159.705 50 0 36.3574 159.835 3 43 990 37.2680 159.705 TC 50 2 10 116
1950221N19124 1950 51 WP MM IDA 1950-08-19 12:00:00 TS 36.7000 160.300 main 1324 1324 O_O______O____ jtwc_wp WP071950 36.9000 160.200 50 0 36.3000 160.500 2 38 990 36.9000 160.200 TC 50 8 121
1950221N19124 1950 51 WP MM IDA 1950-08-19 15:00:00 TS 36.5476 160.608 main 1358 1358 P_P______P____ WP071950 36.7214 160.333 50 0 36.1998 161.158 2 38 990 36.7214 160.333 TC 50 6 123
1950221N19124 1950 51 WP MM IDA 1950-08-19 18:00:00 TS 36.3667 160.933 main 1383 1383 O_O______O____ jtwc_wp WP071950 36.5000 160.500 50 0 36.1000 161.800 2 38 990 36.5000 160.500 TC 50 9 124
1950221N19124 1950 51 WP MM IDA 1950-08-19 21:00:00 TS 36.0456 161.546 main 1451 1451 P_P______P____ WP071950 36.0512 161.122 47 0 36.0343 162.392 2 38 991 36.0512 161.122 TC 47 12 122
1950221N19124 1950 51 WP MM IDA 1950-08-20 00:00:00 TS 35.7333 162.200 main 1516 1516 O_O______O____ jtwc_wp WP071950 35.6000 161.800 45 0 36.0000 163.000 2 38 992 35.6000 161.800 TC 45 10 117
1950221N19124 1950 51 WP MM IDA 1950-08-20 03:00:00 TS 35.5621 162.691 main 1552 1552 P_P______P____ WP071950 35.3469 162.194 50 0 35.9923 163.685 2 38 993 35.3469 162.194 TC 50 8 109
1950221N19124 1950 51 WP MM IDA 1950-08-20 06:00:00 TS 35.4667 163.133 main 1583 1583 O_O______O____ jtwc_wp WP071950 35.2000 162.500 55 0 36.0000 164.400 2 38 995 35.2000 162.500 TC 55 8 105
1950221N19124 1950 51 WP MM IDA 1950-08-20 09:00:00 TS 35.3698 163.600 main 1620 1620 P_P______P____ WP071950 35.0548 162.843 52 0 35.9998 165.115 2 38 995 35.0548 162.843 TC 52 8 100
1950221N19124 1950 51 WP MM IDA 1950-08-20 12:00:00 TS 35.3333 164.067 main 1657 1657 O_O______O____ jtwc_wp WP071950 35.0000 163.200 50 0 36.0000 165.800 2 38 995 35.0000 163.200 TC 50 8 90
1950221N19124 1950 51 WP MM IDA 1950-08-20 15:00:00 TS 35.3751 164.568 main 1678 1678 P_P______P____ WP071950 35.0628 163.637 45 0 35.9997 166.430 2 33 996 35.0628 163.637 TC 45 9 79
1950221N19124 1950 51 WP MM IDA 1950-08-20 18:00:00 TS 35.5200 165.200 main 1706 1704 O_O______O____ jtwc_wp WP071950 35.2000 164.000 40 0 36.0000 167.000 1 29 998 35.2000 164.000 TC 40 11 74
1950221N19124 1950 51 WP MM IDA 1950-08-20 21:00:00 TS 35.6744 165.820 main 1727 1727 P_P______P____ WP071950 35.3498 164.163 37 0 35.9990 167.478 1 29 998 35.3498 164.163 TC 37 13 76
1950221N19124 1950 51 WP MM IDA 1950-08-21 00:00:00 TS 35.8333 166.733 main 1775 1775 O_O______O____ jtwc_wp WP071950 35.5000 164.200 35 0 36.0000 168.000 1 29 998 35.5000 164.200 TC 35 24 82
1950221N19124 1950 51 WP MM IDA 1950-08-21 03:00:00 TS 36.0003 168.720 main 1882 1882 __P___________ WP071950 -1 36.0003 168.720 1 29 998 TC 22 86
1950221N19124 1950 51 WP MM IDA 1950-08-21 06:00:00 TS 36.0000 169.500 main 1917 1917 __O___________ -1 36.0000 169.500 1 29 998 12 90
1950221N19124 1950 51 WP MM IDA 1950-08-21 09:00:00 TS 35.9914 170.178 main 1950 1950 __P___________ -1 35.9914 170.178 1 29 999 11 90
1950221N19124 1950 51 WP MM IDA 1950-08-21 12:00:00 TS 36.0000 170.900 main 1983 1983 __O___________ -1 36.0000 170.900 1 29 1000 13 88
1950221N19124 1950 51 WP MM IDA 1950-08-21 15:00:00 TS 36.0420 171.757 main 2027 2023 __P___________ -1 36.0420 171.757 1 29 1000 15 86
1950221N19124 1950 51 WP MM IDA 1950-08-21 18:00:00 TS 36.1000 172.700 main 2064 __O___________ -1 36.1000 172.700 1 29 1000 15 86

デジタル台風データ・検索

IBTrACS Databaseについて

本データベースは、米国NOAAが公開する1842年以降の世界の熱帯低気圧のベストトラックデータアーカイブInternational Best Track Archive for Climate Stewardship (IBTrACS)を、ウェブで閲覧しやすい形式に変換したものです。

最終更新日:2021-10-21